createdAt,value
2019-03-23T00:01:55.111Z,37.57
2019-03-23T00:04:28.326Z,37.83
2019-03-23T00:06:59.350Z,37.80
2019-03-23T00:09:30.366Z,43.53
2019-03-23T00:12:01.469Z,38.53
2019-03-23T00:14:32.558Z,34.90
2019-03-23T00:17:03.573Z,35.67
2019-03-23T00:19:34.592Z,33.73
2019-03-23T00:22:05.929Z,35.57
2019-03-23T00:24:36.945Z,33.97
2019-03-23T00:27:08.011Z,41.07
2019-03-23T00:29:39.013Z,38.60
2019-03-23T00:32:10.093Z,39.00
2019-03-23T00:34:41.148Z,36.13
2019-03-23T00:37:12.138Z,39.57
2019-03-23T00:39:45.397Z,35.63
2019-03-23T00:42:16.413Z,34.33
2019-03-23T00:44:47.517Z,35.60
2019-03-23T00:47:19.786Z,38.13
2019-03-23T00:49:50.829Z,37.93
2019-03-23T00:52:21.941Z,37.13
2019-03-23T00:54:52.977Z,39.90
2019-03-23T00:57:24.013Z,38.87
2019-03-23T00:59:55.116Z,38.43
2019-03-23T01:02:26.172Z,40.63
2019-03-23T01:04:57.409Z,42.80
2019-03-23T01:07:28.616Z,50.43
2019-03-23T01:09:59.667Z,47.37
2019-03-23T01:12:30.721Z,46.77
2019-03-23T01:15:01.908Z,50.13
2019-03-23T01:17:33.070Z,47.07
2019-03-23T01:20:04.093Z,48.27
2019-03-23T01:22:35.158Z,49.17
2019-03-23T01:25:07.086Z,43.40
2019-03-23T01:27:38.166Z,43.93
2019-03-23T01:30:09.752Z,46.63
2019-03-23T01:32:40.964Z,43.50
2019-03-23T01:35:12.278Z,47.23
2019-03-23T01:37:43.266Z,44.00
2019-03-23T01:40:14.608Z,47.60
2019-03-23T01:42:46.604Z,49.53
2019-03-23T01:45:17.695Z,46.30
2019-03-23T01:47:48.675Z,41.43
2019-03-23T01:50:19.799Z,43.80
2019-03-23T01:52:50.792Z,46.07
2019-03-23T01:55:21.785Z,38.13
2019-03-23T01:57:52.786Z,41.33
2019-03-23T02:00:23.785Z,43.67
2019-03-23T02:02:54.868Z,43.13
2019-03-23T02:05:25.834Z,41.90
2019-03-23T02:07:56.872Z,44.57
2019-03-23T02:10:27.953Z,44.67
2019-03-23T02:13:00.009Z,47.93
2019-03-23T02:15:30.987Z,46.43
2019-03-23T02:18:02.035Z,43.60
2019-03-23T02:20:32.999Z,41.33
2019-03-23T02:23:04.121Z,38.90
2019-03-23T02:25:35.092Z,40.83
2019-03-23T02:28:06.090Z,41.43
2019-03-23T02:30:37.111Z,39.13
2019-03-23T02:33:08.136Z,38.23
2019-03-23T02:35:39.119Z,41.07
2019-03-23T02:38:10.145Z,40.77
2019-03-23T02:40:41.235Z,38.70
2019-03-23T02:43:12.233Z,38.67
2019-03-23T02:45:43.479Z,39.30
2019-03-23T02:48:14.568Z,38.07
2019-03-23T02:50:45.789Z,36.07
2019-03-23T02:53:16.858Z,34.60
2019-03-23T02:55:47.977Z,34.90
2019-03-23T02:58:18.983Z,31.00
2019-03-23T03:00:50.157Z,32.53
2019-03-23T03:03:21.178Z,31.20
2019-03-23T03:05:52.227Z,32.33
2019-03-23T03:08:23.301Z,31.63
2019-03-23T03:10:54.346Z,30.40
2019-03-23T03:13:25.508Z,31.73
2019-03-23T03:15:56.609Z,28.30
2019-03-23T03:18:27.707Z,30.93
2019-03-23T03:20:58.703Z,32.17
2019-03-23T03:23:29.736Z,32.47
2019-03-23T03:26:00.792Z,31.40
2019-03-23T03:28:31.740Z,31.70
2019-03-23T03:31:03.890Z,33.13
2019-03-23T03:33:34.907Z,30.80
2019-03-23T03:36:05.922Z,32.90
2019-03-23T03:38:36.904Z,30.77
2019-03-23T03:41:08.046Z,30.00
2019-03-23T03:43:39.072Z,30.87
2019-03-23T03:46:10.035Z,29.87
2019-03-23T03:48:41.082Z,28.40
2019-03-23T03:51:12.166Z,30.00
2019-03-23T03:53:44.323Z,27.97
2019-03-23T03:56:15.323Z,27.97
2019-03-23T03:58:46.291Z,27.67
2019-03-23T04:01:17.327Z,30.97
2019-03-23T04:03:48.323Z,28.17
2019-03-23T04:06:19.622Z,27.40
2019-03-23T04:08:50.812Z,29.47
2019-03-23T04:11:21.775Z,25.97
2019-03-23T04:13:52.753Z,28.93
2019-03-23T04:16:23.788Z,26.83
2019-03-23T04:18:54.876Z,26.40
2019-03-23T04:21:25.892Z,26.40
2019-03-23T04:23:56.872Z,27.70
2019-03-23T04:26:27.883Z,30.13
2019-03-23T04:28:58.856Z,27.10
2019-03-23T04:31:30.886Z,27.53
2019-03-23T04:34:01.931Z,24.17
2019-03-23T04:36:32.896Z,29.07
2019-03-23T04:39:04.756Z,28.33
2019-03-23T04:41:35.839Z,27.90
2019-03-23T04:44:06.889Z,27.37
2019-03-23T04:46:37.883Z,27.90
2019-03-23T04:49:08.888Z,26.83
2019-03-23T04:51:40.173Z,28.30
2019-03-23T04:54:11.201Z,25.33
2019-03-23T04:56:42.209Z,26.57
2019-03-23T04:59:13.261Z,24.30
2019-03-23T05:01:44.389Z,28.63
2019-03-23T05:04:15.373Z,25.77
2019-03-23T05:06:46.401Z,28.37
2019-03-23T05:09:19.440Z,27.70
2019-03-23T05:11:50.552Z,24.00
2019-03-23T05:14:21.589Z,24.80
2019-03-23T05:16:52.979Z,25.87
2019-03-23T05:19:24.015Z,25.07
2019-03-23T05:21:55.106Z,27.73
2019-03-23T05:24:26.188Z,24.83
2019-03-23T05:26:57.295Z,24.57
2019-03-23T05:29:28.442Z,26.93
2019-03-23T05:31:59.479Z,26.10
2019-03-23T05:34:30.642Z,23.97
2019-03-23T05:37:01.722Z,25.93
2019-03-23T05:39:32.812Z,23.27
2019-03-23T05:42:03.976Z,24.33
2019-03-23T05:44:35.080Z,24.50
2019-03-23T05:47:06.268Z,27.67
2019-03-23T05:49:37.716Z,23.13
2019-03-23T05:52:08.912Z,23.93
2019-03-23T05:54:40.400Z,25.00
2019-03-23T05:57:11.636Z,20.90
2019-03-23T05:59:42.722Z,22.47
2019-03-23T06:02:13.889Z,22.77
2019-03-23T06:04:44.837Z,21.47
2019-03-23T06:07:15.954Z,21.53
2019-03-23T06:09:46.938Z,22.47
2019-03-23T06:12:17.932Z,21.77
2019-03-23T06:14:50.059Z,21.73
2019-03-23T06:17:21.036Z,22.53
2019-03-23T06:19:52.084Z,23.40
2019-03-23T06:22:23.079Z,23.23
2019-03-23T06:24:54.130Z,23.73
2019-03-23T06:27:25.215Z,23.40
2019-03-23T06:29:56.279Z,23.07
2019-03-23T06:32:27.283Z,23.03
2019-03-23T06:34:58.385Z,22.87
2019-03-23T06:37:29.385Z,22.43
2019-03-23T06:40:00.509Z,23.00
2019-03-23T06:42:31.573Z,22.63
2019-03-23T06:45:02.705Z,24.13
2019-03-23T06:47:33.758Z,25.43
2019-03-23T06:50:05.655Z,21.53
2019-03-23T06:52:38.655Z,24.17
2019-03-23T06:55:10.660Z,22.07
2019-03-23T06:57:41.670Z,20.97
2019-03-23T07:00:15.701Z,22.13
2019-03-23T07:02:46.958Z,21.73
2019-03-23T07:05:18.010Z,23.90
2019-03-23T07:07:49.083Z,22.13
2019-03-23T07:10:20.520Z,23.30
2019-03-23T07:12:52.485Z,22.90
2019-03-23T07:15:23.610Z,20.90
2019-03-23T07:17:54.642Z,21.80
2019-03-23T07:20:25.594Z,22.97
2019-03-23T07:22:56.738Z,20.63
2019-03-23T07:25:27.840Z,22.77
2019-03-23T07:27:59.534Z,20.83
2019-03-23T07:30:30.486Z,22.60
2019-03-23T07:33:01.573Z,21.30
2019-03-23T07:35:34.740Z,22.00
2019-03-23T07:38:05.776Z,20.37
2019-03-23T07:40:36.850Z,20.30
2019-03-23T07:43:08.010Z,21.47
2019-03-23T07:45:39.190Z,20.23
2019-03-23T07:48:10.183Z,21.40
2019-03-23T07:50:41.213Z,21.60
2019-03-23T07:53:12.259Z,22.53
2019-03-23T07:55:43.306Z,21.47
2019-03-23T07:58:14.445Z,23.57
2019-03-23T08:00:45.483Z,22.90
2019-03-23T08:03:16.439Z,21.50
2019-03-23T08:05:47.499Z,22.50
2019-03-23T08:08:18.535Z,20.93
2019-03-23T08:10:49.774Z,23.63
2019-03-23T08:13:20.819Z,21.80
2019-03-23T08:15:51.893Z,23.53
2019-03-23T08:18:23.044Z,22.67
2019-03-23T08:20:54.008Z,22.77
2019-03-23T08:23:25.532Z,22.97
2019-03-23T08:25:56.621Z,23.30
2019-03-23T08:28:27.670Z,23.77
2019-03-23T08:30:58.961Z,23.17
2019-03-23T08:33:29.974Z,22.83
2019-03-23T08:36:00.988Z,23.50
2019-03-23T08:38:32.055Z,23.20
2019-03-23T08:41:03.062Z,23.67
2019-03-23T08:43:34.084Z,23.63
2019-03-23T08:46:05.075Z,23.30
2019-03-23T08:48:36.112Z,23.50
2019-03-23T08:51:07.092Z,23.60
2019-03-23T08:53:38.193Z,23.50
2019-03-23T08:56:09.199Z,23.80
2019-03-23T08:58:37.925Z,22.07
2019-03-23T09:01:08.980Z,22.73
2019-03-23T09:03:40.027Z,23.73
2019-03-23T09:06:11.128Z,21.90
2019-03-23T09:08:42.169Z,23.60
2019-03-23T09:11:20.466Z,25.43
2019-03-23T09:13:45.981Z,23.33
2019-03-23T09:16:17.050Z,23.80
2019-03-23T09:18:48.187Z,25.93
2019-03-23T09:21:19.203Z,25.17
2019-03-23T09:23:50.207Z,25.73
2019-03-23T09:26:21.589Z,26.83
2019-03-23T09:28:52.606Z,25.43
2019-03-23T09:31:23.651Z,27.63
2019-03-23T09:33:54.993Z,25.10
2019-03-23T09:36:26.127Z,26.53
2019-03-23T09:38:57.244Z,26.70
2019-03-23T09:41:28.340Z,25.47
2019-03-23T09:43:59.327Z,26.03
2019-03-23T09:46:30.855Z,26.70
2019-03-23T09:49:01.897Z,25.87
2019-03-23T09:51:32.906Z,25.83
2019-03-23T09:54:03.860Z,24.27
2019-03-23T09:56:34.848Z,23.93
2019-03-23T09:59:05.994Z,25.33
2019-03-23T10:01:37.104Z,25.57
2019-03-23T10:04:09.054Z,27.40
2019-03-23T10:06:40.046Z,24.90
2019-03-23T10:09:11.190Z,23.50
2019-03-23T10:11:42.316Z,26.00
2019-03-23T10:14:13.501Z,24.00
2019-03-23T10:16:44.582Z,25.50
2019-03-23T10:19:15.708Z,22.47
2019-03-23T10:21:46.892Z,23.90
2019-03-23T10:24:17.972Z,26.00
2019-03-23T10:26:49.056Z,25.40
2019-03-23T10:29:20.085Z,24.77
2019-03-23T10:31:51.038Z,24.50
2019-03-23T10:34:22.206Z,25.33
2019-03-23T10:36:53.198Z,25.57
2019-03-23T10:39:24.143Z,25.53
2019-03-23T10:41:55.151Z,25.83
2019-03-23T10:44:26.171Z,25.23
2019-03-23T10:46:57.265Z,25.07
2019-03-23T10:49:28.308Z,24.03
2019-03-23T10:51:59.305Z,24.70
2019-03-23T10:54:30.375Z,24.13
2019-03-23T10:57:01.345Z,25.33
2019-03-23T10:59:32.404Z,23.93
2019-03-23T11:02:03.350Z,25.37
2019-03-23T11:04:34.454Z,25.47
2019-03-23T11:07:05.496Z,24.20
2019-03-23T11:09:36.603Z,24.57
2019-03-23T11:12:07.577Z,22.30
2019-03-23T11:14:38.573Z,24.53
2019-03-23T11:17:09.541Z,24.13
2019-03-23T11:19:41.541Z,23.67
2019-03-23T11:22:12.532Z,22.13
2019-03-23T11:24:43.521Z,22.70
2019-03-23T11:27:14.636Z,23.93
2019-03-23T11:29:47.284Z,23.27
2019-03-23T11:32:18.252Z,23.23
2019-03-23T11:34:49.266Z,19.87
2019-03-23T11:37:20.347Z,20.07
2019-03-23T11:39:51.487Z,22.50
2019-03-23T11:42:22.603Z,20.77
2019-03-23T11:44:53.671Z,21.73
2019-03-23T11:47:24.788Z,19.03
2019-03-23T11:49:55.790Z,20.27
2019-03-23T11:52:26.782Z,21.03
2019-03-23T11:54:57.836Z,20.13
2019-03-23T11:57:28.887Z,19.47
2019-03-23T12:00:00.186Z,21.00
2019-03-23T12:02:31.368Z,22.00
2019-03-23T12:05:02.421Z,21.30
2019-03-23T12:07:33.603Z,19.27
2019-03-23T12:10:05.429Z,19.27
2019-03-23T12:12:36.639Z,18.03
2019-03-23T12:15:09.577Z,17.67
2019-03-23T12:17:40.639Z,18.67
2019-03-23T12:20:11.787Z,17.20
2019-03-23T12:22:43.826Z,17.90
2019-03-23T12:25:14.967Z,18.07
2019-03-23T12:27:46.070Z,18.40
2019-03-23T12:30:17.891Z,16.60
2019-03-23T12:32:48.908Z,17.17
2019-03-23T12:35:20.011Z,16.23
2019-03-23T12:37:51.093Z,15.77
2019-03-23T12:40:22.233Z,16.47
2019-03-23T12:42:53.272Z,15.53
2019-03-23T12:45:24.500Z,14.83
2019-03-23T12:47:55.727Z,14.27
2019-03-23T12:50:26.833Z,13.87
2019-03-23T12:52:57.952Z,14.17
2019-03-23T12:55:29.162Z,15.17
2019-03-23T12:58:00.302Z,15.27
2019-03-23T13:00:32.366Z,15.40
2019-03-23T13:03:03.394Z,13.90
2019-03-23T13:05:34.490Z,16.10
2019-03-23T13:08:05.440Z,14.90
2019-03-23T13:10:36.973Z,14.90
2019-03-23T13:13:08.016Z,14.60
2019-03-23T13:15:39.230Z,16.57
2019-03-23T13:18:11.323Z,14.80
2019-03-23T13:20:42.515Z,15.43
2019-03-23T13:23:13.539Z,14.50
2019-03-23T13:25:44.594Z,14.30
2019-03-23T13:28:15.569Z,14.63
2019-03-23T13:30:46.718Z,13.20
2019-03-23T13:33:17.747Z,13.50
2019-03-23T13:35:49.106Z,11.60
2019-03-23T13:38:21.293Z,11.70
2019-03-23T13:40:52.394Z,12.13
2019-03-23T13:43:23.613Z,12.77
2019-03-23T13:45:54.680Z,10.33
2019-03-23T13:48:25.923Z,10.37
2019-03-23T13:50:57.020Z,11.93
2019-03-23T13:53:28.188Z,11.33
2019-03-23T13:55:59.189Z,12.77
2019-03-23T13:58:30.413Z,12.73
2019-03-23T14:01:01.507Z,12.20
2019-03-23T14:03:32.523Z,12.07
2019-03-23T14:06:03.491Z,9.73
2019-03-23T14:08:34.586Z,11.03
2019-03-23T14:11:05.702Z,11.73
2019-03-23T14:13:36.757Z,11.50
2019-03-23T14:16:07.828Z,11.30
2019-03-23T14:18:38.867Z,10.43
2019-03-23T14:21:09.857Z,12.27
2019-03-23T14:23:40.898Z,11.10
2019-03-23T14:26:11.976Z,10.37
2019-03-23T14:28:43.226Z,11.33
2019-03-23T14:31:14.409Z,11.37
2019-03-23T14:33:45.486Z,11.13
2019-03-23T14:36:17.657Z,10.47
2019-03-23T14:38:48.876Z,9.63
2019-03-23T14:41:19.892Z,10.23
2019-03-23T14:43:51.848Z,10.47
2019-03-23T14:46:22.891Z,10.20
2019-03-23T14:48:53.988Z,9.47
2019-03-23T14:51:25.042Z,9.40
2019-03-23T14:53:56.100Z,9.30
2019-03-23T14:56:31.484Z,11.47
2019-03-23T14:58:59.956Z,12.23
2019-03-23T15:01:31.016Z,10.03
2019-03-23T15:04:02.022Z,9.70
2019-03-23T15:06:33.582Z,9.93
2019-03-23T15:09:05.659Z,9.70
2019-03-23T15:11:36.899Z,9.73
2019-03-23T15:14:07.912Z,10.23
2019-03-23T15:16:39.130Z,8.53
2019-03-23T15:19:10.250Z,8.30
2019-03-23T15:21:41.555Z,9.00
2019-03-23T15:24:12.688Z,10.67
2019-03-23T15:26:43.955Z,8.17
2019-03-23T15:29:15.050Z,10.17
2019-03-23T15:31:46.145Z,9.03
2019-03-23T15:34:17.475Z,9.50
2019-03-23T15:36:48.470Z,9.30
2019-03-23T15:39:19.483Z,10.50
2019-03-23T15:41:50.623Z,8.37
2019-03-23T15:44:21.647Z,8.77
2019-03-23T15:46:52.636Z,9.47
2019-03-23T15:49:23.753Z,7.20
2019-03-23T15:51:54.787Z,7.73
2019-03-23T15:54:25.771Z,8.10
2019-03-23T15:56:56.914Z,7.00
2019-03-23T15:59:27.844Z,7.73
2019-03-23T16:01:59.000Z,7.10
2019-03-23T16:04:30.113Z,7.67
2019-03-23T16:07:01.159Z,7.50
2019-03-23T16:09:32.239Z,11.17
2019-03-23T16:12:03.380Z,8.03
2019-03-23T16:14:34.467Z,8.30
2019-03-23T16:17:05.591Z,8.07
2019-03-23T16:19:36.671Z,7.50
2019-03-23T16:22:08.660Z,7.53
2019-03-23T16:24:39.629Z,6.93
2019-03-23T16:27:11.018Z,6.87
2019-03-23T16:29:42.112Z,7.07
2019-03-23T16:32:13.177Z,7.50
2019-03-23T16:34:44.289Z,7.27
2019-03-23T16:37:15.377Z,7.43
2019-03-23T16:39:46.329Z,7.00
2019-03-23T16:42:17.747Z,7.23
2019-03-23T16:44:48.862Z,7.33
2019-03-23T16:47:19.976Z,7.73
2019-03-23T16:49:51.084Z,6.83
2019-03-23T16:52:22.132Z,6.90
2019-03-23T16:54:53.306Z,5.97
2019-03-23T16:57:24.413Z,6.27
2019-03-23T16:59:55.575Z,6.63
2019-03-23T17:02:26.962Z,7.77
2019-03-23T17:04:58.082Z,8.50
2019-03-23T17:07:29.362Z,6.73
2019-03-23T17:10:00.809Z,8.43
2019-03-23T17:12:31.922Z,14.93
2019-03-23T17:15:02.984Z,9.20
2019-03-23T17:17:34.704Z,9.10
2019-03-23T17:20:06.007Z,8.07
2019-03-23T17:22:37.147Z,14.43
2019-03-23T17:25:08.218Z,11.33
2019-03-23T17:27:39.490Z,11.53
2019-03-23T17:30:11.750Z,10.73
2019-03-23T17:32:42.811Z,11.13
2019-03-23T17:35:14.162Z,12.40
2019-03-23T17:37:45.389Z,13.17
2019-03-23T17:40:16.490Z,12.77
2019-03-23T17:42:47.582Z,12.80
2019-03-23T17:45:18.775Z,12.57
2019-03-23T17:47:49.849Z,10.17
2019-03-23T17:50:23.979Z,10.40
2019-03-23T17:52:55.077Z,11.27
2019-03-23T17:55:26.097Z,9.50
2019-03-23T17:57:57.289Z,8.80
2019-03-23T18:00:28.471Z,79.93
2019-03-23T18:02:59.490Z,79.30
2019-03-23T18:05:30.503Z,47.40
2019-03-23T18:08:01.548Z,34.60
2019-03-23T18:10:32.602Z,44.63
2019-03-23T18:13:03.743Z,34.23
2019-03-23T18:15:34.779Z,29.23
2019-03-23T18:18:07.640Z,18.00
2019-03-23T18:20:38.671Z,16.93
2019-03-23T18:23:10.044Z,20.17
2019-03-23T18:25:40.998Z,23.23
2019-03-23T18:28:12.113Z,64.27
2019-03-23T18:30:44.247Z,56.13
2019-03-23T18:33:15.388Z,25.40
2019-03-23T18:35:46.367Z,31.97
2019-03-23T18:38:17.496Z,25.77
2019-03-23T18:40:48.507Z,23.87
2019-03-23T18:43:27.466Z,20.33
2019-03-23T18:45:52.554Z,20.83
2019-03-23T18:48:23.673Z,24.53
2019-03-23T18:50:54.767Z,22.30
2019-03-23T18:53:25.761Z,23.00
2019-03-23T18:55:56.769Z,25.30
2019-03-23T18:58:27.802Z,22.57
2019-03-23T19:00:59.220Z,27.53
2019-03-23T19:03:30.291Z,25.67
2019-03-23T19:06:01.454Z,24.90
2019-03-23T19:08:32.543Z,28.40
2019-03-23T19:11:03.765Z,28.93
2019-03-23T19:13:38.185Z,29.97
2019-03-23T19:16:07.598Z,27.07
2019-03-23T19:18:39.848Z,30.00
2019-03-23T19:21:10.984Z,31.53
2019-03-23T19:23:42.021Z,27.83
2019-03-23T19:26:13.059Z,24.13
2019-03-23T19:28:44.076Z,25.90
2019-03-23T19:31:15.105Z,29.47
2019-03-23T19:33:46.236Z,24.60
2019-03-23T19:36:17.370Z,25.70
2019-03-23T19:38:50.093Z,30.80
2019-03-23T19:41:21.232Z,27.10
2019-03-23T19:43:52.399Z,26.03
2019-03-23T19:46:23.468Z,25.40
2019-03-23T19:48:54.457Z,21.57
2019-03-23T19:51:25.468Z,29.93
2019-03-23T19:53:57.587Z,28.33
2019-03-23T19:56:28.575Z,29.80
2019-03-23T19:58:59.586Z,30.43
2019-03-23T20:01:30.740Z,31.33
2019-03-23T20:04:01.764Z,29.70
2019-03-23T20:06:33.146Z,34.37
2019-03-23T20:09:05.506Z,30.83
2019-03-23T20:11:36.658Z,32.10
2019-03-23T20:14:07.736Z,33.80
2019-03-23T20:16:38.852Z,42.93
2019-03-23T20:19:09.971Z,36.77
2019-03-23T20:21:41.059Z,39.70
2019-03-23T20:24:12.137Z,31.87
2019-03-23T20:26:43.194Z,37.57
2019-03-23T20:29:14.256Z,37.17
2019-03-23T20:31:45.603Z,37.90
2019-03-23T20:34:16.854Z,37.83
2019-03-23T20:36:47.981Z,34.50
2019-03-23T20:39:19.041Z,60.10
2019-03-23T20:41:50.150Z,57.73
2019-03-23T20:44:21.254Z,47.87
2019-03-23T20:46:52.473Z,42.03
2019-03-23T20:49:24.285Z,44.77
2019-03-23T20:51:55.785Z,39.17
2019-03-23T20:54:27.625Z,42.63
2019-03-23T20:56:58.764Z,43.10
2019-03-23T20:59:31.728Z,41.27
2019-03-23T21:02:02.685Z,48.30
2019-03-23T21:04:33.836Z,43.30
2019-03-23T21:07:04.879Z,43.77
2019-03-23T21:09:35.971Z,47.30
2019-03-23T21:12:07.137Z,43.53
2019-03-23T21:14:38.219Z,42.37
2019-03-23T21:17:09.345Z,36.07
2019-03-23T21:19:40.422Z,44.90
2019-03-23T21:22:11.571Z,44.97
2019-03-23T21:24:42.763Z,46.80
2019-03-23T21:27:15.025Z,48.07
2019-03-23T21:29:46.086Z,45.83
2019-03-23T21:32:18.185Z,38.07
2019-03-23T21:34:49.373Z,52.37
2019-03-23T21:37:20.483Z,49.27
2019-03-23T21:39:51.666Z,47.93
2019-03-23T21:42:22.972Z,57.63
2019-03-23T21:44:54.172Z,59.77
2019-03-23T21:47:25.224Z,51.00
2019-03-23T21:49:56.286Z,49.60
2019-03-23T21:52:27.344Z,51.00
2019-03-23T21:54:58.488Z,49.83
2019-03-23T21:57:29.590Z,46.27
2019-03-23T22:00:00.572Z,50.43
2019-03-23T22:02:32.778Z,46.87
2019-03-23T22:05:03.858Z,50.47
2019-03-23T22:07:34.940Z,51.37
2019-03-23T22:10:07.559Z,51.93
2019-03-23T22:12:38.652Z,54.77
2019-03-23T22:15:10.785Z,50.37
2019-03-23T22:17:41.795Z,53.20
2019-03-23T22:20:13.122Z,51.30
2019-03-23T22:22:44.149Z,51.40
2019-03-23T22:25:15.139Z,48.93
2019-03-23T22:27:46.145Z,50.70
2019-03-23T22:30:17.879Z,51.60
2019-03-23T22:32:48.871Z,48.33
2019-03-23T22:35:19.881Z,49.93
2019-03-23T22:37:50.927Z,47.47
2019-03-23T22:40:21.893Z,49.00
2019-03-23T22:42:52.903Z,50.40
2019-03-23T22:45:23.845Z,48.67
2019-03-23T22:47:54.839Z,49.13
2019-03-23T22:50:25.893Z,49.83
2019-03-23T22:52:56.934Z,48.90
2019-03-23T22:55:27.967Z,41.43
2019-03-23T22:57:59.033Z,48.70
2019-03-23T23:00:48.968Z,49.33
2019-03-23T23:03:20.061Z,49.90
2019-03-23T23:05:51.073Z,50.57
2019-03-23T23:08:22.281Z,49.37
2019-03-23T23:10:54.240Z,47.77
2019-03-23T23:13:25.394Z,50.77
2019-03-23T23:15:56.578Z,47.57
2019-03-23T23:18:27.803Z,49.33
2019-03-23T23:20:58.832Z,48.60
2019-03-23T23:23:29.946Z,47.63
2019-03-23T23:26:01.066Z,52.30
2019-03-23T23:28:32.170Z,52.73
2019-03-23T23:31:03.264Z,50.23
2019-03-23T23:33:34.382Z,47.70
2019-03-23T23:36:05.425Z,49.07
2019-03-23T23:38:36.478Z,49.07
2019-03-23T23:41:07.504Z,45.80
2019-03-23T23:43:38.624Z,51.33
2019-03-23T23:46:09.686Z,49.07
2019-03-23T23:48:50.930Z,50.03
2019-03-23T23:51:13.314Z,47.33
2019-03-23T23:53:44.355Z,46.63
2019-03-23T23:56:15.397Z,45.20
2019-03-23T23:58:46.551Z,45.70
